CheckWX is a tool to help pilots better visualize weather data.  It is not intended as a substitute for an official pre-flight weather briefing.

20:57:55 UTC

KCSG METAR
Columbus Airport
Columbus, Georgia, USA
Current

1 hour ago

KCSG 181951Z 03011G16KT 10SM CLR 19/M03 A3017 RMK AO2 SLP213 T01891033
Observed
Feb-18 @ 19:51 UTC
Wind
  • 030° at 11 KTS
  • Gusting to 16 KTS
Visibility
10 SM
Flight Rules
VFR
Cloud Levels
  • Clear skies
Temperature
19°C / 66°F
Dewpoint
-3°C / 27°F
Humidity
22%
Altimeter
30.17" Hg
Pressure
1021.3 hPa
Previous

2 hours ago

KCSG 181851Z 03011G16KT 10SM BKN100 18/M02 A3018 RMK AO2 SLP218 T01781017
Observed
Feb-18 @ 18:51 UTC
Wind
  • 030° at 11 KTS
  • Gusting to 16 KTS
Visibility
10 SM
Flight Rules
VFR
Cloud Levels
  • Broken at 10,000' AGL
Temperature
18°C / 64°F
Dewpoint
-2°C / 28°F
Humidity
26%
Altimeter
30.18" Hg
Pressure
1021.8 hPa
Previous

3 hours ago

KCSG 181751Z 01010KT 350V050 10SM SCT090 16/03 A3021 RMK AO2 SLP225 60000 T01610028 10172 20111 50008
Observed
Feb-18 @ 17:51 UTC
Wind
  • 010° at 10 KTS
Visibility
10 SM
Flight Rules
VFR
Cloud Levels
  • Scattered at 9,000' AGL
Temperature
16°C / 61°F
Dewpoint
C / 37°F
Humidity
42%
Altimeter
30.21" Hg
Pressure
1022.5 hPa